createdAt,value
2023-03-07T00:02:28.121Z,15.87
2023-03-07T00:07:52.173Z,14.03
2023-03-07T00:12:58.815Z,15.47
2023-03-07T00:18:08.121Z,15.67
2023-03-07T00:23:13.679Z,15.00
2023-03-07T00:28:28.913Z,15.03
2023-03-07T00:39:05.413Z,15.33
2023-03-07T00:44:19.383Z,15.47
2023-03-07T00:49:33.098Z,14.73
2023-03-07T00:54:37.507Z,13.90
2023-03-07T00:59:43.882Z,14.97
2023-03-07T01:04:58.378Z,14.07
2023-03-07T01:10:05.208Z,15.27
2023-03-07T01:15:11.678Z,15.60
2023-03-07T01:20:22.457Z,14.37
2023-03-07T01:25:29.306Z,13.97
2023-03-07T01:30:35.823Z,16.73
2023-03-07T01:35:51.020Z,14.43
2023-03-07T01:41:15.519Z,14.07
2023-03-07T01:46:53.074Z,14.57
2023-03-07T01:52:13.999Z,13.37
2023-03-07T01:57:38.262Z,15.73
2023-03-07T02:02:50.940Z,15.70
2023-03-07T02:08:01.440Z,14.80
2023-03-07T02:13:40.738Z,17.30
2023-03-07T02:18:56.284Z,16.40
2023-03-07T02:24:33.124Z,17.07
2023-03-07T02:29:44.701Z,18.47
2023-03-07T02:35:00.641Z,18.07
2023-03-07T02:40:25.336Z,18.67
2023-03-07T02:45:38.955Z,20.67
2023-03-07T02:51:13.717Z,19.33
2023-03-07T02:56:23.269Z,18.73
2023-03-07T03:01:41.926Z,17.63
2023-03-07T03:07:01.353Z,19.43
2023-03-07T03:12:17.906Z,18.20
2023-03-07T03:17:41.760Z,18.23
2023-03-07T03:22:46.308Z,22.17
2023-03-07T03:27:55.810Z,19.43
2023-03-07T03:33:32.874Z,19.73
2023-03-07T03:38:48.869Z,21.00
2023-03-07T03:44:00.360Z,21.47
2023-03-07T03:49:35.323Z,23.40
2023-03-07T03:54:54.948Z,20.13
2023-03-07T04:05:52.750Z,21.07
2023-03-07T04:11:03.550Z,21.27
2023-03-07T04:16:23.092Z,21.23
2023-03-07T04:21:27.626Z,22.13
2023-03-07T04:26:37.146Z,20.80
2023-03-07T04:31:49.232Z,20.50
2023-03-07T04:37:02.600Z,20.17
2023-03-07T04:42:48.713Z,19.00
2023-03-07T04:48:03.089Z,19.07
2023-03-07T04:53:10.435Z,17.03
2023-03-07T04:58:34.873Z,16.67
2023-03-07T05:04:16.682Z,15.33
2023-03-07T05:09:18.476Z,13.70
2023-03-07T05:14:43.041Z,15.50
2023-03-07T05:19:48.916Z,14.97
2023-03-07T05:25:27.815Z,15.67
2023-03-07T05:30:44.841Z,12.27
2023-03-07T05:36:24.165Z,5.57
2023-03-07T05:52:40.235Z,4.63
2023-03-07T05:58:48.179Z,5.13
2023-03-07T06:04:15.200Z,4.97
2023-03-07T06:09:44.898Z,4.40
2023-03-07T06:20:34.195Z,5.53
2023-03-07T06:25:51.553Z,6.27
2023-03-07T06:31:16.352Z,7.90
2023-03-07T06:36:28.772Z,11.07
2023-03-07T06:41:42.251Z,12.97
2023-03-07T06:46:57.879Z,11.37
2023-03-07T06:57:37.171Z,10.23
2023-03-07T07:03:04.924Z,9.77
2023-03-07T07:08:16.848Z,10.57
2023-03-07T07:13:25.751Z,11.63
2023-03-07T07:18:39.563Z,11.10
2023-03-07T07:24:22.115Z,10.53
2023-03-07T07:29:43.841Z,9.03
2023-03-07T07:34:47.404Z,7.47
2023-03-07T07:39:58.592Z,6.57
2023-03-07T07:45:11.015Z,5.43
2023-03-07T07:50:19.407Z,4.63
2023-03-07T07:55:28.850Z,4.97
2023-03-07T08:00:47.027Z,4.60
2023-03-07T08:05:56.009Z,5.10
2023-03-07T08:11:27.026Z,5.93
2023-03-07T08:16:42.659Z,2.97
2023-03-07T08:22:11.637Z,1.83
2023-03-07T08:27:23.088Z,2.50
2023-03-07T08:32:40.549Z,2.23
2023-03-07T08:43:17.603Z,2.87
2023-03-07T08:48:36.527Z,2.60
2023-03-07T08:59:57.530Z,2.63
2023-03-07T09:05:02.152Z,2.83
2023-03-07T09:10:12.196Z,3.97
2023-03-07T09:15:28.886Z,2.57
2023-03-07T09:20:48.329Z,2.57
2023-03-07T09:26:01.793Z,1.80
2023-03-07T09:43:08.076Z,1.67
2023-03-07T09:49:09.380Z,1.73
2023-03-07T09:54:49.371Z,1.60
2023-03-07T10:00:00.948Z,2.57
2023-03-07T10:05:22.135Z,1.27
2023-03-07T10:10:43.258Z,2.23
2023-03-07T10:16:07.560Z,2.03
2023-03-07T10:21:44.756Z,2.50
2023-03-07T10:27:20.927Z,2.33
2023-03-07T10:33:14.464Z,2.83
2023-03-07T10:44:32.362Z,3.37
2023-03-07T10:50:36.183Z,3.20
2023-03-07T11:01:50.222Z,3.37
2023-03-07T11:07:25.599Z,2.73
2023-03-07T11:12:53.696Z,3.30
2023-03-07T11:23:49.802Z,3.00
2023-03-07T11:29:33.167Z,2.67
2023-03-07T11:41:21.118Z,3.40
2023-03-07T11:47:05.706Z,3.80
2023-03-07T11:52:55.755Z,3.33
2023-03-07T11:58:35.494Z,2.40
2023-03-07T12:04:27.584Z,3.27
2023-03-07T12:10:02.588Z,3.33
2023-03-07T12:15:50.422Z,6.30
2023-03-07T12:21:40.499Z,5.00
2023-03-07T12:27:16.808Z,5.13
2023-03-07T12:32:56.319Z,4.73
2023-03-07T12:38:45.137Z,4.63
2023-03-07T12:44:15.172Z,3.97
2023-03-07T12:49:49.921Z,4.83
2023-03-07T12:55:36.536Z,4.20
2023-03-07T13:01:10.238Z,5.53
2023-03-07T13:12:39.293Z,5.37
2023-03-07T13:17:53.080Z,5.63
2023-03-07T13:28:48.287Z,4.30
2023-03-07T13:34:03.468Z,5.77
2023-03-07T13:40:09.590Z,4.87
2023-03-07T13:45:47.102Z,4.47
2023-03-07T13:51:10.216Z,3.60
2023-03-07T13:56:28.926Z,4.63
2023-03-07T14:02:09.707Z,2.87
2023-03-07T14:07:40.644Z,3.63
2023-03-07T14:13:45.397Z,3.13
2023-03-07T14:19:33.140Z,3.50
2023-03-07T14:25:04.964Z,5.43
2023-03-07T14:30:24.106Z,2.90
2023-03-07T14:35:50.746Z,4.00
2023-03-07T14:42:08.858Z,3.60
2023-03-07T14:48:01.645Z,4.37
2023-03-07T14:53:26.892Z,4.40
2023-03-07T14:59:00.128Z,4.50
2023-03-07T15:04:11.342Z,3.80
2023-03-07T15:09:16.349Z,4.00
2023-03-07T15:14:59.972Z,4.37
2023-03-07T15:20:28.960Z,3.50
2023-03-07T15:31:19.367Z,4.00
2023-03-07T15:36:43.867Z,4.53
2023-03-07T15:42:04.492Z,2.10
2023-03-07T15:53:22.201Z,1.50
2023-03-07T15:58:59.834Z,2.10
2023-03-07T16:04:27.372Z,2.53
2023-03-07T16:09:44.624Z,2.30
2023-03-07T16:14:57.203Z,2.43
2023-03-07T16:20:51.565Z,2.37
2023-03-07T16:26:20.517Z,2.60
2023-03-07T16:31:37.509Z,1.80
2023-03-07T16:37:00.335Z,2.73
2023-03-07T16:42:20.205Z,1.77
2023-03-07T16:47:56.871Z,2.10
2023-03-07T16:53:18.223Z,1.60
2023-03-07T16:58:44.095Z,17.13
2023-03-07T17:04:09.553Z,7.83
2023-03-07T17:21:34.430Z,1.90
2023-03-07T17:27:06.881Z,1.87
2023-03-07T17:43:49.331Z,2.10
2023-03-07T17:50:05.999Z,1.30
2023-03-07T18:07:12.383Z,2.17
2023-03-07T18:19:36.220Z,3.93
2023-03-07T18:25:42.406Z,2.70
2023-03-07T18:43:12.443Z,2.40
2023-03-07T18:54:39.735Z,3.33
2023-03-07T19:06:06.840Z,2.50
2023-03-07T19:11:43.774Z,2.70
2023-03-07T19:16:47.560Z,2.60
2023-03-07T19:22:28.700Z,3.53
2023-03-07T19:28:29.151Z,3.27
2023-03-07T19:40:11.432Z,4.03
2023-03-07T19:46:05.277Z,3.83
2023-03-07T19:51:47.380Z,4.57
2023-03-07T20:22:51.162Z,6.47
2023-03-07T20:35:11.851Z,5.20
2023-03-07T20:40:46.228Z,5.23
2023-03-07T20:53:24.240Z,15.10
2023-03-07T20:57:25.437Z,6.40
2023-03-07T21:15:12.835Z,36.57
2023-03-07T21:26:44.913Z,6.70
2023-03-07T21:38:41.725Z,7.53
2023-03-07T21:56:15.792Z,6.97
2023-03-07T22:20:50.675Z,9.87
2023-03-07T22:26:03.792Z,10.43
2023-03-07T22:31:19.975Z,10.60
2023-03-07T22:36:21.708Z,11.13
2023-03-07T22:41:39.493Z,13.40
2023-03-07T22:46:47.672Z,12.73
2023-03-07T22:52:02.528Z,11.13
2023-03-07T22:57:25.080Z,12.47
2023-03-07T23:03:06.067Z,12.90
2023-03-07T23:08:47.733Z,13.03
2023-03-07T23:14:14.944Z,11.87
2023-03-07T23:19:26.674Z,12.13
2023-03-07T23:24:42.755Z,12.57
2023-03-07T23:30:10.724Z,10.73
2023-03-07T23:35:21.838Z,10.90
2023-03-07T23:40:29.103Z,8.97
2023-03-07T23:45:38.315Z,8.60
2023-03-07T23:51:06.897Z,9.83
2023-03-07T23:56:20.406Z,8.07
